Terminal Aerodrome Forecast
Issued by NWS Detroit/Pontiac, MI

Home | Current Version | Previous Version | Text Only | Print | Product List | Glossary On
Versions: 1 2 3 4 5 6 7 8 9 10 11 12 13 14 15 16 17 18 19 20 21 22 23 24 25 26 27 28 29 30 31 32
000
FTUS43 KDTX 011505 AAQ
TAFFNT
TAF AMD
KFNT 011505Z 0115/0212 29016G26KT P6SM BKN035
     FM011600 32015G25KT P6SM BKN040 BKN100
     FM012300 28010G19KT P6SM SCT040
     FM020300 28005KT P6SM SKC=

USA.gov is the U.S. government's official web portal to all federal, state and local government web resources and services.